sensor_id;sensor_type;location;lat;lon;timestamp;P1;durP1;ratioP1;P2;durP2;ratioP2
34019;SDS011;20895;51.034;3.742;2024-02-26T00:00:55;2.92;;;2.22;;
34019;SDS011;20895;51.034;3.742;2024-02-26T00:03:21;3.83;;;1.42;;
34019;SDS011;20895;51.034;3.742;2024-02-26T00:05:46;2.63;;;1.33;;
34019;SDS011;20895;51.034;3.742;2024-02-26T00:08:11;1.83;;;1.40;;
34019;SDS011;20895;51.034;3.742;2024-02-26T00:10:36;3.60;;;1.52;;
34019;SDS011;20895;51.034;3.742;2024-02-26T00:13:02;3.83;;;1.52;;
34019;SDS011;20895;51.034;3.742;2024-02-26T00:15:27;2.58;;;1.52;;
34019;SDS011;20895;51.034;3.742;2024-02-26T00:17:53;1.52;;;1.23;;
34019;SDS011;20895;51.034;3.742;2024-02-26T00:20:18;2.28;;;1.80;;
34019;SDS011;20895;51.034;3.742;2024-02-26T00:22:43;2.80;;;1.20;;
34019;SDS011;20895;51.034;3.742;2024-02-26T00:25:08;3.67;;;1.17;;
34019;SDS011;20895;51.034;3.742;2024-02-26T00:27:33;2.47;;;1.30;;
34019;SDS011;20895;51.034;3.742;2024-02-26T00:29:59;2.95;;;1.40;;
34019;SDS011;20895;51.034;3.742;2024-02-26T00:32:24;4.15;;;1.63;;
34019;SDS011;20895;51.034;3.742;2024-02-26T00:34:49;3.83;;;1.60;;
34019;SDS011;20895;51.034;3.742;2024-02-26T00:37:15;3.03;;;1.70;;
34019;SDS011;20895;51.034;3.742;2024-02-26T00:39:40;2.35;;;1.88;;
34019;SDS011;20895;51.034;3.742;2024-02-26T00:42:06;4.45;;;1.40;;
34019;SDS011;20895;51.034;3.742;2024-02-26T00:44:31;3.67;;;1.42;;
34019;SDS011;20895;51.034;3.742;2024-02-26T00:46:57;2.03;;;1.33;;
34019;SDS011;20895;51.034;3.742;2024-02-26T00:49:22;3.30;;;1.67;;
34019;SDS011;20895;51.034;3.742;2024-02-26T00:51:47;3.15;;;1.55;;
34019;SDS011;20895;51.034;3.742;2024-02-26T00:54:12;2.30;;;1.58;;
34019;SDS011;20895;51.034;3.742;2024-02-26T00:56:38;2.83;;;1.70;;
34019;SDS011;20895;51.034;3.742;2024-02-26T00:59:03;2.58;;;1.50;;
34019;SDS011;20895;51.034;3.742;2024-02-26T01:01:28;4.20;;;2.05;;
34019;SDS011;20895;51.034;3.742;2024-02-26T01:03:54;3.28;;;1.60;;
34019;SDS011;20895;51.034;3.742;2024-02-26T01:06:19;1.55;;;1.20;;
34019;SDS011;20895;51.034;3.742;2024-02-26T01:08:44;3.25;;;1.73;;
34019;SDS011;20895;51.034;3.742;2024-02-26T01:11:10;2.42;;;1.65;;
34019;SDS011;20895;51.034;3.742;2024-02-26T01:13:35;2.33;;;1.75;;
34019;SDS011;20895;51.034;3.742;2024-02-26T01:16:00;3.33;;;1.48;;
34019;SDS011;20895;51.034;3.742;2024-02-26T01:18:26;2.65;;;1.58;;
34019;SDS011;20895;51.034;3.742;2024-02-26T01:20:51;2.60;;;1.30;;
34019;SDS011;20895;51.034;3.742;2024-02-26T01:23:19;2.70;;;1.45;;
34019;SDS011;20895;51.034;3.742;2024-02-26T01:25:44;3.00;;;1.45;;
34019;SDS011;20895;51.034;3.742;2024-02-26T01:28:09;3.10;;;1.45;;
34019;SDS011;20895;51.034;3.742;2024-02-26T01:30:35;3.83;;;2.05;;
34019;SDS011;20895;51.034;3.742;2024-02-26T01:33:00;2.15;;;1.50;;
34019;SDS011;20895;51.034;3.742;2024-02-26T01:35:25;1.58;;;1.48;;
34019;SDS011;20895;51.034;3.742;2024-02-26T01:37:51;2.25;;;2.03;;
34019;SDS011;20895;51.034;3.742;2024-02-26T01:40:16;3.47;;;1.55;;
34019;SDS011;20895;51.034;3.742;2024-02-26T01:42:44;2.65;;;1.35;;
34019;SDS011;20895;51.034;3.742;2024-02-26T01:45:16;5.35;;;1.80;;
34019;SDS011;20895;51.034;3.742;2024-02-26T01:47:47;2.75;;;1.45;;
34019;SDS011;20895;51.034;3.742;2024-02-26T01:50:12;2.22;;;1.58;;
34019;SDS011;20895;51.034;3.742;2024-02-26T01:52:37;4.90;;;1.88;;
34019;SDS011;20895;51.034;3.742;2024-02-26T01:55:03;2.45;;;1.80;;
34019;SDS011;20895;51.034;3.742;2024-02-26T01:57:28;2.25;;;1.45;;
34019;SDS011;20895;51.034;3.742;2024-02-26T01:59:54;2.55;;;1.50;;
34019;SDS011;20895;51.034;3.742;2024-02-26T02:02:19;3.83;;;2.15;;
34019;SDS011;20895;51.034;3.742;2024-02-26T02:04:45;1.92;;;1.52;;
34019;SDS011;20895;51.034;3.742;2024-02-26T02:07:10;3.17;;;2.38;;
34019;SDS011;20895;51.034;3.742;2024-02-26T02:09:36;2.20;;;1.83;;
34019;SDS011;20895;51.034;3.742;2024-02-26T02:12:01;3.20;;;1.50;;
34019;SDS011;20895;51.034;3.742;2024-02-26T02:14:27;4.05;;;2.00;;
34019;SDS011;20895;51.034;3.742;2024-02-26T02:16:52;3.47;;;1.95;;
34019;SDS011;20895;51.034;3.742;2024-02-26T02:19:17;3.22;;;1.55;;
34019;SDS011;20895;51.034;3.742;2024-02-26T02:21:42;2.58;;;1.90;;
34019;SDS011;20895;51.034;3.742;2024-02-26T02:24:08;2.90;;;1.80;;
34019;SDS011;20895;51.034;3.742;2024-02-26T02:26:33;2.72;;;1.90;;
34019;SDS011;20895;51.034;3.742;2024-02-26T02:28:58;2.03;;;1.58;;
34019;SDS011;20895;51.034;3.742;2024-02-26T02:31:24;3.42;;;2.20;;
34019;SDS011;20895;51.034;3.742;2024-02-26T02:33:49;3.53;;;1.63;;
34019;SDS011;20895;51.034;3.742;2024-02-26T02:36:15;2.13;;;1.85;;
34019;SDS011;20895;51.034;3.742;2024-02-26T02:38:49;2.90;;;2.03;;
34019;SDS011;20895;51.034;3.742;2024-02-26T02:41:15;1.98;;;1.58;;
34019;SDS011;20895;51.034;3.742;2024-02-26T02:43:40;2.13;;;1.73;;
34019;SDS011;20895;51.034;3.742;2024-02-26T02:46:06;3.08;;;1.98;;
34019;SDS011;20895;51.034;3.742;2024-02-26T02:48:31;2.47;;;1.83;;
34019;SDS011;20895;51.034;3.742;2024-02-26T02:50:56;3.20;;;2.20;;
34019;SDS011;20895;51.034;3.742;2024-02-26T02:53:21;3.50;;;2.20;;
34019;SDS011;20895;51.034;3.742;2024-02-26T02:55:47;3.85;;;1.83;;
34019;SDS011;20895;51.034;3.742;2024-02-26T02:58:12;3.47;;;2.33;;
34019;SDS011;20895;51.034;3.742;2024-02-26T03:00:37;2.30;;;2.10;;
34019;SDS011;20895;51.034;3.742;2024-02-26T03:03:02;3.85;;;2.50;;
34019;SDS011;20895;51.034;3.742;2024-02-26T03:05:28;3.13;;;1.80;;
34019;SDS011;20895;51.034;3.742;2024-02-26T03:07:53;2.47;;;2.10;;
34019;SDS011;20895;51.034;3.742;2024-02-26T03:10:18;3.30;;;2.58;;
34019;SDS011;20895;51.034;3.742;2024-02-26T03:12:43;3.30;;;2.80;;
34019;SDS011;20895;51.034;3.742;2024-02-26T03:15:09;3.42;;;2.47;;
34019;SDS011;20895;51.034;3.742;2024-02-26T03:17:36;3.80;;;2.47;;
34019;SDS011;20895;51.034;3.742;2024-02-26T03:20:01;6.20;;;2.72;;
34019;SDS011;20895;51.034;3.742;2024-02-26T03:22:28;3.83;;;2.42;;
34019;SDS011;20895;51.034;3.742;2024-02-26T03:24:53;3.15;;;2.67;;
34019;SDS011;20895;51.034;3.742;2024-02-26T03:27:19;6.82;;;3.30;;
34019;SDS011;20895;51.034;3.742;2024-02-26T03:29:44;4.22;;;3.05;;
34019;SDS011;20895;51.034;3.742;2024-02-26T03:32:09;5.22;;;3.40;;
34019;SDS011;20895;51.034;3.742;2024-02-26T03:34:34;5.32;;;3.72;;
34019;SDS011;20895;51.034;3.742;2024-02-26T03:37:00;8.90;;;4.18;;
34019;SDS011;20895;51.034;3.742;2024-02-26T03:39:26;4.53;;;3.28;;
34019;SDS011;20895;51.034;3.742;2024-02-26T03:41:51;5.60;;;3.88;;
34019;SDS011;20895;51.034;3.742;2024-02-26T03:44:16;6.07;;;3.95;;
34019;SDS011;20895;51.034;3.742;2024-02-26T03:46:41;4.38;;;3.60;;
34019;SDS011;20895;51.034;3.742;2024-02-26T03:49:10;4.57;;;3.72;;
34019;SDS011;20895;51.034;3.742;2024-02-26T03:51:35;5.18;;;3.80;;
34019;SDS011;20895;51.034;3.742;2024-02-26T03:54:00;5.57;;;3.78;;
34019;SDS011;20895;51.034;3.742;2024-02-26T03:56:26;4.90;;;3.47;;
34019;SDS011;20895;51.034;3.742;2024-02-26T03:58:51;3.95;;;3.53;;
34019;SDS011;20895;51.034;3.742;2024-02-26T04:01:17;5.13;;;4.18;;
34019;SDS011;20895;51.034;3.742;2024-02-26T04:03:42;6.47;;;4.15;;
34019;SDS011;20895;51.034;3.742;2024-02-26T04:06:11;4.97;;;4.07;;
34019;SDS011;20895;51.034;3.742;2024-02-26T04:08:38;6.22;;;4.80;;
34019;SDS011;20895;51.034;3.742;2024-02-26T04:11:04;4.97;;;4.25;;
34019;SDS011;20895;51.034;3.742;2024-02-26T04:13:32;7.43;;;5.32;;
34019;SDS011;20895;51.034;3.742;2024-02-26T04:15:57;8.38;;;7.10;;
34019;SDS011;20895;51.034;3.742;2024-02-26T04:18:23;7.00;;;4.82;;
34019;SDS011;20895;51.034;3.742;2024-02-26T04:20:48;6.30;;;5.22;;
34019;SDS011;20895;51.034;3.742;2024-02-26T04:23:13;7.10;;;4.95;;
34019;SDS011;20895;51.034;3.742;2024-02-26T04:25:38;7.38;;;4.97;;
34019;SDS011;20895;51.034;3.742;2024-02-26T04:28:04;10.00;;;5.70;;
34019;SDS011;20895;51.034;3.742;2024-02-26T04:30:29;5.80;;;5.00;;
34019;SDS011;20895;51.034;3.742;2024-02-26T04:32:54;6.50;;;5.43;;
34019;SDS011;20895;51.034;3.742;2024-02-26T04:35:20;6.57;;;5.50;;
34019;SDS011;20895;51.034;3.742;2024-02-26T04:37:45;8.38;;;5.35;;
34019;SDS011;20895;51.034;3.742;2024-02-26T04:40:10;7.03;;;5.35;;
34019;SDS011;20895;51.034;3.742;2024-02-26T04:42:35;7.18;;;5.47;;
34019;SDS011;20895;51.034;3.742;2024-02-26T04:45:01;7.13;;;4.80;;
34019;SDS011;20895;51.034;3.742;2024-02-26T04:47:26;6.75;;;4.80;;
34019;SDS011;20895;51.034;3.742;2024-02-26T04:49:51;5.90;;;4.95;;
34019;SDS011;20895;51.034;3.742;2024-02-26T04:52:18;5.28;;;4.63;;
34019;SDS011;20895;51.034;3.742;2024-02-26T04:54:43;6.72;;;4.60;;
34019;SDS011;20895;51.034;3.742;2024-02-26T04:57:08;5.70;;;4.30;;
34019;SDS011;20895;51.034;3.742;2024-02-26T04:59:34;5.72;;;4.70;;
34019;SDS011;20895;51.034;3.742;2024-02-26T05:01:59;5.13;;;4.43;;
34019;SDS011;20895;51.034;3.742;2024-02-26T05:04:24;5.20;;;4.30;;
34019;SDS011;20895;51.034;3.742;2024-02-26T05:06:50;4.82;;;4.28;;
34019;SDS011;20895;51.034;3.742;2024-02-26T05:09:15;5.55;;;4.10;;
34019;SDS011;20895;51.034;3.742;2024-02-26T05:11:40;5.53;;;4.43;;
34019;SDS011;20895;51.034;3.742;2024-02-26T05:14:06;6.50;;;4.28;;
34019;SDS011;20895;51.034;3.742;2024-02-26T05:16:31;4.40;;;3.80;;
34019;SDS011;20895;51.034;3.742;2024-02-26T05:18:56;4.82;;;4.20;;
34019;SDS011;20895;51.034;3.742;2024-02-26T05:21:22;4.18;;;3.78;;
34019;SDS011;20895;51.034;3.742;2024-02-26T05:23:47;5.20;;;4.40;;
34019;SDS011;20895;51.034;3.742;2024-02-26T05:26:18;5.15;;;4.15;;
34019;SDS011;20895;51.034;3.742;2024-02-26T05:28:44;4.60;;;3.78;;
34019;SDS011;20895;51.034;3.742;2024-02-26T05:31:12;4.90;;;3.80;;
34019;SDS011;20895;51.034;3.742;2024-02-26T05:33:37;6.60;;;4.57;;
34019;SDS011;20895;51.034;3.742;2024-02-26T05:36:02;5.53;;;4.05;;
34019;SDS011;20895;51.034;3.742;2024-02-26T05:38:29;7.05;;;4.65;;
34019;SDS011;20895;51.034;3.742;2024-02-26T05:40:54;5.10;;;4.30;;
34019;SDS011;20895;51.034;3.742;2024-02-26T05:43:19;5.38;;;4.50;;
34019;SDS011;20895;51.034;3.742;2024-02-26T05:45:44;5.30;;;4.10;;
34019;SDS011;20895;51.034;3.742;2024-02-26T05:48:10;7.28;;;3.67;;
34019;SDS011;20895;51.034;3.742;2024-02-26T05:50:35;4.85;;;4.18;;
34019;SDS011;20895;51.034;3.742;2024-02-26T05:53:00;4.35;;;3.60;;
34019;SDS011;20895;51.034;3.742;2024-02-26T05:55:25;5.63;;;4.35;;
34019;SDS011;20895;51.034;3.742;2024-02-26T05:57:50;5.63;;;3.97;;
34019;SDS011;20895;51.034;3.742;2024-02-26T06:00:16;4.55;;;4.03;;
34019;SDS011;20895;51.034;3.742;2024-02-26T06:02:41;4.45;;;3.92;;
34019;SDS011;20895;51.034;3.742;2024-02-26T06:05:06;4.53;;;3.75;;
34019;SDS011;20895;51.034;3.742;2024-02-26T06:07:33;4.93;;;4.43;;
34019;SDS011;20895;51.034;3.742;2024-02-26T06:09:59;6.13;;;4.75;;
34019;SDS011;20895;51.034;3.742;2024-02-26T06:12:25;7.40;;;4.63;;
34019;SDS011;20895;51.034;3.742;2024-02-26T06:14:51;5.82;;;4.95;;
34019;SDS011;20895;51.034;3.742;2024-02-26T06:17:16;8.93;;;4.75;;
34019;SDS011;20895;51.034;3.742;2024-02-26T06:19:42;7.05;;;5.13;;
34019;SDS011;20895;51.034;3.742;2024-02-26T06:22:07;7.85;;;4.45;;
34019;SDS011;20895;51.034;3.742;2024-02-26T06:24:32;5.85;;;5.25;;
34019;SDS011;20895;51.034;3.742;2024-02-26T06:26:57;6.88;;;5.15;;
34019;SDS011;20895;51.034;3.742;2024-02-26T06:29:23;6.63;;;5.35;;
34019;SDS011;20895;51.034;3.742;2024-02-26T06:31:48;8.25;;;5.40;;
34019;SDS011;20895;51.034;3.742;2024-02-26T06:34:15;5.70;;;4.63;;
34019;SDS011;20895;51.034;3.742;2024-02-26T06:36:41;8.35;;;5.28;;
34019;SDS011;20895;51.034;3.742;2024-02-26T06:39:06;7.20;;;5.03;;
34019;SDS011;20895;51.034;3.742;2024-02-26T06:41:31;4.60;;;4.10;;
34019;SDS011;20895;51.034;3.742;2024-02-26T06:43:56;6.78;;;4.57;;
34019;SDS011;20895;51.034;3.742;2024-02-26T06:46:22;4.97;;;4.20;;
34019;SDS011;20895;51.034;3.742;2024-02-26T06:48:48;5.18;;;4.63;;
34019;SDS011;20895;51.034;3.742;2024-02-26T06:51:13;6.85;;;4.65;;
34019;SDS011;20895;51.034;3.742;2024-02-26T06:53:39;7.07;;;4.40;;
34019;SDS011;20895;51.034;3.742;2024-02-26T06:56:04;5.72;;;4.53;;
34019;SDS011;20895;51.034;3.742;2024-02-26T06:58:29;6.50;;;4.35;;
34019;SDS011;20895;51.034;3.742;2024-02-26T07:00:54;4.93;;;4.30;;
34019;SDS011;20895;51.034;3.742;2024-02-26T07:03:20;5.18;;;4.05;;
34019;SDS011;20895;51.034;3.742;2024-02-26T07:05:45;6.93;;;4.68;;
34019;SDS011;20895;51.034;3.742;2024-02-26T07:08:11;5.93;;;4.68;;
34019;SDS011;20895;51.034;3.742;2024-02-26T07:10:36;7.70;;;4.38;;
34019;SDS011;20895;51.034;3.742;2024-02-26T07:13:01;5.82;;;4.55;;
34019;SDS011;20895;51.034;3.742;2024-02-26T07:15:27;5.07;;;4.32;;
34019;SDS011;20895;51.034;3.742;2024-02-26T07:17:53;10.30;;;4.50;;
34019;SDS011;20895;51.034;3.742;2024-02-26T07:20:18;6.22;;;4.40;;
34019;SDS011;20895;51.034;3.742;2024-02-26T07:22:43;12.82;;;4.65;;
34019;SDS011;20895;51.034;3.742;2024-02-26T07:25:08;7.72;;;4.75;;
34019;SDS011;20895;51.034;3.742;2024-02-26T07:27:38;9.10;;;4.65;;
34019;SDS011;20895;51.034;3.742;2024-02-26T07:30:03;10.00;;;4.13;;
34019;SDS011;20895;51.034;3.742;2024-02-26T07:32:28;8.50;;;4.68;;
34019;SDS011;20895;51.034;3.742;2024-02-26T07:34:54;22.42;;;6.80;;
34019;SDS011;20895;51.034;3.742;2024-02-26T07:37:19;9.70;;;4.65;;
34019;SDS011;20895;51.034;3.742;2024-02-26T07:39:44;5.03;;;3.97;;
34019;SDS011;20895;51.034;3.742;2024-02-26T07:42:09;18.00;;;5.50;;
34019;SDS011;20895;51.034;3.742;2024-02-26T07:44:35;10.27;;;4.70;;
34019;SDS011;20895;51.034;3.742;2024-02-26T07:47:00;8.27;;;4.45;;
34019;SDS011;20895;51.034;3.742;2024-02-26T07:49:25;8.25;;;4.60;;
34019;SDS011;20895;51.034;3.742;2024-02-26T07:51:50;16.15;;;5.57;;
34019;SDS011;20895;51.034;3.742;2024-02-26T07:54:16;8.18;;;4.53;;
34019;SDS011;20895;51.034;3.742;2024-02-26T07:56:41;5.65;;;3.85;;
34019;SDS011;20895;51.034;3.742;2024-02-26T07:59:07;23.05;;;4.80;;
34019;SDS011;20895;51.034;3.742;2024-02-26T08:01:32;7.88;;;4.22;;
34019;SDS011;20895;51.034;3.742;2024-02-26T08:03:58;5.00;;;4.18;;
34019;SDS011;20895;51.034;3.742;2024-02-26T08:06:23;8.73;;;3.95;;
34019;SDS011;20895;51.034;3.742;2024-02-26T08:08:49;16.73;;;4.30;;
34019;SDS011;20895;51.034;3.742;2024-02-26T08:11:15;6.20;;;3.60;;
34019;SDS011;20895;51.034;3.742;2024-02-26T08:13:41;7.63;;;3.42;;
34019;SDS011;20895;51.034;3.742;2024-02-26T08:16:06;8.32;;;4.15;;
34019;SDS011;20895;51.034;3.742;2024-02-26T08:18:31;4.70;;;3.55;;
34019;SDS011;20895;51.034;3.742;2024-02-26T08:20:56;5.07;;;3.40;;
34019;SDS011;20895;51.034;3.742;2024-02-26T08:23:22;6.43;;;3.90;;
34019;SDS011;20895;51.034;3.742;2024-02-26T08:25:47;4.63;;;3.40;;
34019;SDS011;20895;51.034;3.742;2024-02-26T08:28:13;4.97;;;3.97;;
34019;SDS011;20895;51.034;3.742;2024-02-26T08:30:39;4.57;;;3.42;;
34019;SDS011;20895;51.034;3.742;2024-02-26T08:33:04;5.75;;;3.38;;
34019;SDS011;20895;51.034;3.742;2024-02-26T08:35:29;9.45;;;4.43;;
34019;SDS011;20895;51.034;3.742;2024-02-26T08:37:54;11.52;;;4.38;;
34019;SDS011;20895;51.034;3.742;2024-02-26T08:40:20;13.38;;;3.75;;
34019;SDS011;20895;51.034;3.742;2024-02-26T08:42:45;9.00;;;3.65;;
34019;SDS011;20895;51.034;3.742;2024-02-26T08:45:10;17.50;;;5.18;;
34019;SDS011;20895;51.034;3.742;2024-02-26T08:47:36;10.98;;;7.03;;
34019;SDS011;20895;51.034;3.742;2024-02-26T08:50:01;7.60;;;4.65;;
34019;SDS011;20895;51.034;3.742;2024-02-26T08:52:27;6.00;;;3.75;;
34019;SDS011;20895;51.034;3.742;2024-02-26T08:54:52;6.28;;;4.15;;
34019;SDS011;20895;51.034;3.742;2024-02-26T08:57:17;7.38;;;4.32;;
34019;SDS011;20895;51.034;3.742;2024-02-26T08:59:43;8.95;;;5.00;;
34019;SDS011;20895;51.034;3.742;2024-02-26T09:02:08;7.57;;;4.80;;
34019;SDS011;20895;51.034;3.742;2024-02-26T09:04:34;12.13;;;5.45;;
34019;SDS011;20895;51.034;3.742;2024-02-26T09:07:00;9.90;;;5.28;;
34019;SDS011;20895;51.034;3.742;2024-02-26T09:09:25;12.32;;;4.80;;
34019;SDS011;20895;51.034;3.742;2024-02-26T09:11:51;13.70;;;5.28;;
34019;SDS011;20895;51.034;3.742;2024-02-26T09:14:17;13.27;;;4.85;;
34019;SDS011;20895;51.034;3.742;2024-02-26T09:16:42;7.13;;;5.20;;
34019;SDS011;20895;51.034;3.742;2024-02-26T09:19:07;8.45;;;4.60;;
34019;SDS011;20895;51.034;3.742;2024-02-26T09:21:33;6.13;;;4.60;;
34019;SDS011;20895;51.034;3.742;2024-02-26T09:23:58;11.10;;;5.53;;
34019;SDS011;20895;51.034;3.742;2024-02-26T09:26:23;9.57;;;5.38;;
34019;SDS011;20895;51.034;3.742;2024-02-26T09:28:48;13.98;;;5.18;;
34019;SDS011;20895;51.034;3.742;2024-02-26T09:31:14;7.43;;;4.97;;
34019;SDS011;20895;51.034;3.742;2024-02-26T09:33:41;18.70;;;6.13;;
34019;SDS011;20895;51.034;3.742;2024-02-26T09:36:06;6.70;;;5.30;;
34019;SDS011;20895;51.034;3.742;2024-02-26T09:38:31;8.10;;;5.60;;
34019;SDS011;20895;51.034;3.742;2024-02-26T09:41:01;10.32;;;5.45;;
34019;SDS011;20895;51.034;3.742;2024-02-26T09:43:27;8.27;;;5.60;;
34019;SDS011;20895;51.034;3.742;2024-02-26T09:45:57;9.18;;;5.13;;
34019;SDS011;20895;51.034;3.742;2024-02-26T09:48:22;8.18;;;6.00;;
34019;SDS011;20895;51.034;3.742;2024-02-26T09:50:48;7.15;;;5.63;;
34019;SDS011;20895;51.034;3.742;2024-02-26T09:53:14;13.82;;;5.57;;
34019;SDS011;20895;51.034;3.742;2024-02-26T09:55:40;11.18;;;5.40;;
34019;SDS011;20895;51.034;3.742;2024-02-26T09:58:05;13.80;;;5.60;;
34019;SDS011;20895;51.034;3.742;2024-02-26T10:00:31;8.23;;;6.05;;
34019;SDS011;20895;51.034;3.742;2024-02-26T10:03:06;9.80;;;5.93;;
34019;SDS011;20895;51.034;3.742;2024-02-26T10:05:33;6.18;;;4.93;;
34019;SDS011;20895;51.034;3.742;2024-02-26T10:07:59;8.20;;;5.95;;
34019;SDS011;20895;51.034;3.742;2024-02-26T10:10:26;6.60;;;5.47;;
34019;SDS011;20895;51.034;3.742;2024-02-26T10:12:52;7.75;;;5.80;;
34019;SDS011;20895;51.034;3.742;2024-02-26T10:15:17;7.10;;;5.80;;
34019;SDS011;20895;51.034;3.742;2024-02-26T10:17:43;10.55;;;5.47;;
34019;SDS011;20895;51.034;3.742;2024-02-26T10:20:16;7.82;;;5.63;;
34019;SDS011;20895;51.034;3.742;2024-02-26T10:22:42;7.78;;;5.68;;
34019;SDS011;20895;51.034;3.742;2024-02-26T10:25:08;7.25;;;5.60;;
34019;SDS011;20895;51.034;3.742;2024-02-26T10:27:33;9.15;;;5.75;;
34019;SDS011;20895;51.034;3.742;2024-02-26T10:29:59;6.85;;;5.57;;
34019;SDS011;20895;51.034;3.742;2024-02-26T10:32:27;6.93;;;5.32;;
34019;SDS011;20895;51.034;3.742;2024-02-26T10:34:55;9.73;;;6.57;;
34019;SDS011;20895;51.034;3.742;2024-02-26T10:37:21;6.68;;;5.50;;
34019;SDS011;20895;51.034;3.742;2024-02-26T10:39:47;7.95;;;5.65;;
34019;SDS011;20895;51.034;3.742;2024-02-26T10:42:12;10.23;;;5.68;;
34019;SDS011;20895;51.034;3.742;2024-02-26T10:44:39;11.60;;;6.47;;
34019;SDS011;20895;51.034;3.742;2024-02-26T10:47:05;8.10;;;5.85;;
34019;SDS011;20895;51.034;3.742;2024-02-26T10:49:30;10.02;;;7.20;;
34019;SDS011;20895;51.034;3.742;2024-02-26T10:51:56;8.27;;;5.82;;
34019;SDS011;20895;51.034;3.742;2024-02-26T10:54:25;8.75;;;5.63;;
34019;SDS011;20895;51.034;3.742;2024-02-26T10:56:52;8.18;;;6.32;;
34019;SDS011;20895;51.034;3.742;2024-02-26T10:59:18;8.20;;;6.35;;
34019;SDS011;20895;51.034;3.742;2024-02-26T11:01:47;8.20;;;7.00;;
34019;SDS011;20895;51.034;3.742;2024-02-26T11:04:13;7.97;;;6.90;;
34019;SDS011;20895;51.034;3.742;2024-02-26T11:06:38;7.97;;;6.40;;
34019;SDS011;20895;51.034;3.742;2024-02-26T11:09:03;7.50;;;6.07;;
34019;SDS011;20895;51.034;3.742;2024-02-26T11:11:30;9.43;;;6.65;;
34019;SDS011;20895;51.034;3.742;2024-02-26T11:13:56;9.23;;;7.30;;
34019;SDS011;20895;51.034;3.742;2024-02-26T11:16:23;10.95;;;7.85;;
34019;SDS011;20895;51.034;3.742;2024-02-26T11:18:48;13.02;;;8.50;;
34019;SDS011;20895;51.034;3.742;2024-02-26T11:21:17;10.68;;;8.43;;
34019;SDS011;20895;51.034;3.742;2024-02-26T11:23:48;10.25;;;7.85;;
34019;SDS011;20895;51.034;3.742;2024-02-26T11:26:14;10.88;;;8.40;;
34019;SDS011;20895;51.034;3.742;2024-02-26T11:28:40;13.38;;;9.00;;
34019;SDS011;20895;51.034;3.742;2024-02-26T11:31:06;13.18;;;9.32;;
34019;SDS011;20895;51.034;3.742;2024-02-26T11:33:32;13.18;;;11.20;;
34019;SDS011;20895;51.034;3.742;2024-02-26T11:35:58;14.52;;;9.60;;
34019;SDS011;20895;51.034;3.742;2024-02-26T11:38:24;12.50;;;10.48;;
34019;SDS011;20895;51.034;3.742;2024-02-26T11:40:50;15.30;;;9.07;;
34019;SDS011;20895;51.034;3.742;2024-02-26T11:43:16;13.30;;;9.88;;
34019;SDS011;20895;51.034;3.742;2024-02-26T11:48:23;17.27;;;10.23;;
34019;SDS011;20895;51.034;3.742;2024-02-26T11:50:50;15.55;;;9.02;;
34019;SDS011;20895;51.034;3.742;2024-02-26T11:53:25;13.43;;;10.95;;
34019;SDS011;20895;51.034;3.742;2024-02-26T11:58:34;19.40;;;8.00;;
34019;SDS011;20895;51.034;3.742;2024-02-26T12:01:00;15.25;;;8.90;;
34019;SDS011;20895;51.034;3.742;2024-02-26T12:03:27;10.60;;;9.07;;
34019;SDS011;20895;51.034;3.742;2024-02-26T12:05:53;10.20;;;7.05;;
34019;SDS011;20895;51.034;3.742;2024-02-26T12:08:20;11.85;;;6.90;;
34019;SDS011;20895;51.034;3.742;2024-02-26T12:10:46;12.40;;;7.40;;
34019;SDS011;20895;51.034;3.742;2024-02-26T12:13:14;9.43;;;6.93;;
34019;SDS011;20895;51.034;3.742;2024-02-26T12:15:44;9.32;;;6.82;;
34019;SDS011;20895;51.034;3.742;2024-02-26T12:18:10;9.05;;;6.38;;
34019;SDS011;20895;51.034;3.742;2024-02-26T12:20:36;9.68;;;7.72;;
34019;SDS011;20895;51.034;3.742;2024-02-26T12:23:01;9.90;;;6.30;;
34019;SDS011;20895;51.034;3.742;2024-02-26T12:25:28;9.68;;;7.10;;
34019;SDS011;20895;51.034;3.742;2024-02-26T12:27:54;8.07;;;5.78;;
34019;SDS011;20895;51.034;3.742;2024-02-26T12:30:19;13.40;;;12.05;;
34019;SDS011;20895;51.034;3.742;2024-02-26T12:32:45;8.48;;;6.50;;
34019;SDS011;20895;51.034;3.742;2024-02-26T12:35:12;11.65;;;6.85;;
34019;SDS011;20895;51.034;3.742;2024-02-26T12:37:38;7.93;;;5.70;;
34019;SDS011;20895;51.034;3.742;2024-02-26T12:40:07;8.43;;;5.70;;
34019;SDS011;20895;51.034;3.742;2024-02-26T12:42:33;6.20;;;5.47;;
34019;SDS011;20895;51.034;3.742;2024-02-26T12:45:04;8.10;;;5.57;;
34019;SDS011;20895;51.034;3.742;2024-02-26T12:47:34;7.13;;;5.40;;
34019;SDS011;20895;51.034;3.742;2024-02-26T12:49:59;7.22;;;6.25;;
34019;SDS011;20895;51.034;3.742;2024-02-26T12:52:25;8.98;;;6.15;;
34019;SDS011;20895;51.034;3.742;2024-02-26T12:54:50;8.20;;;5.47;;
34019;SDS011;20895;51.034;3.742;2024-02-26T12:57:15;7.55;;;4.72;;
34019;SDS011;20895;51.034;3.742;2024-02-26T12:59:41;8.18;;;4.82;;
34019;SDS011;20895;51.034;3.742;2024-02-26T13:02:06;7.90;;;5.28;;
34019;SDS011;20895;51.034;3.742;2024-02-26T13:04:32;5.40;;;4.32;;
34019;SDS011;20895;51.034;3.742;2024-02-26T13:06:57;10.48;;;5.07;;
34019;SDS011;20895;51.034;3.742;2024-02-26T13:09:28;8.82;;;5.00;;
34019;SDS011;20895;51.034;3.742;2024-02-26T13:11:54;9.00;;;4.57;;
34019;SDS011;20895;51.034;3.742;2024-02-26T13:14:22;7.55;;;5.25;;
34019;SDS011;20895;51.034;3.742;2024-02-26T13:16:57;6.78;;;4.72;;
34019;SDS011;20895;51.034;3.742;2024-02-26T13:19:22;6.45;;;4.35;;
34019;SDS011;20895;51.034;3.742;2024-02-26T13:21:48;5.28;;;4.22;;
34019;SDS011;20895;51.034;3.742;2024-02-26T13:24:13;6.00;;;4.30;;
34019;SDS011;20895;51.034;3.742;2024-02-26T13:26:39;5.13;;;3.95;;
34019;SDS011;20895;51.034;3.742;2024-02-26T13:29:04;5.28;;;3.92;;
34019;SDS011;20895;51.034;3.742;2024-02-26T13:31:30;5.82;;;4.25;;
34019;SDS011;20895;51.034;3.742;2024-02-26T13:33:55;9.07;;;4.72;;
34019;SDS011;20895;51.034;3.742;2024-02-26T13:36:24;6.43;;;4.30;;
34019;SDS011;20895;51.034;3.742;2024-02-26T13:38:53;6.03;;;4.65;;
34019;SDS011;20895;51.034;3.742;2024-02-26T13:41:19;5.78;;;4.43;;
34019;SDS011;20895;51.034;3.742;2024-02-26T13:43:44;5.88;;;4.45;;
34019;SDS011;20895;51.034;3.742;2024-02-26T13:46:10;8.02;;;5.32;;
34019;SDS011;20895;51.034;3.742;2024-02-26T13:48:37;9.13;;;4.40;;
34019;SDS011;20895;51.034;3.742;2024-02-26T13:51:03;6.15;;;4.65;;
34019;SDS011;20895;51.034;3.742;2024-02-26T13:53:28;6.15;;;5.18;;
34019;SDS011;20895;51.034;3.742;2024-02-26T13:55:53;6.15;;;4.80;;
34019;SDS011;20895;51.034;3.742;2024-02-26T13:58:18;6.10;;;5.20;;
34019;SDS011;20895;51.034;3.742;2024-02-26T14:00:48;6.47;;;4.75;;
34019;SDS011;20895;51.034;3.742;2024-02-26T14:03:13;11.18;;;5.82;;
34019;SDS011;20895;51.034;3.742;2024-02-26T14:05:38;8.02;;;4.63;;
34019;SDS011;20895;51.034;3.742;2024-02-26T14:08:03;5.57;;;4.47;;
34019;SDS011;20895;51.034;3.742;2024-02-26T14:10:29;5.90;;;4.90;;
34019;SDS011;20895;51.034;3.742;2024-02-26T14:12:55;6.80;;;4.57;;
34019;SDS011;20895;51.034;3.742;2024-02-26T14:15:21;6.75;;;4.78;;
34019;SDS011;20895;51.034;3.742;2024-02-26T14:17:46;6.63;;;4.82;;
34019;SDS011;20895;51.034;3.742;2024-02-26T14:20:18;5.78;;;4.72;;
34019;SDS011;20895;51.034;3.742;2024-02-26T14:22:43;5.60;;;4.80;;
34019;SDS011;20895;51.034;3.742;2024-02-26T14:25:08;6.80;;;4.88;;
34019;SDS011;20895;51.034;3.742;2024-02-26T14:27:37;4.45;;;3.90;;
34019;SDS011;20895;51.034;3.742;2024-02-26T14:30:02;6.10;;;3.83;;
34019;SDS011;20895;51.034;3.742;2024-02-26T14:32:27;5.20;;;4.05;;
34019;SDS011;20895;51.034;3.742;2024-02-26T14:34:53;6.13;;;4.10;;
34019;SDS011;20895;51.034;3.742;2024-02-26T14:37:18;6.30;;;4.22;;
34019;SDS011;20895;51.034;3.742;2024-02-26T14:39:43;5.60;;;4.43;;
34019;SDS011;20895;51.034;3.742;2024-02-26T14:42:08;6.63;;;4.82;;